Time;durP1;ratioP1;P1;durP2;ratioP2;P2;SDS_P1;SDS_P2;PMS_P1;PMS_P2;Temp;Humidity;BMP_temperature;BMP_pressure;BME280_temperature;BME280_humidity;BME280_pressure;Samples;Min_cycle;Max_cycle;Signal;HPM_P1;HPM_P2
2024/04/16 00:00:40;;;;;;;;;;;;;;;5.54;83.46;100129.50;107087;1275;22429;-44
2024/04/16 00:03:07;;;;;;;;;;;;;;;5.54;83.08;100125.16;106989;1275;22438;-47
2024/04/16 00:05:33;;;;;;;;;;;;;;;5.56;83.19;100129.08;107252;1275;22674;-46
2024/04/16 00:08:00;;;;;;;;;;;;;;;5.59;83.31;100129.30;106864;1275;25357;-45
2024/04/16 00:10:27;;;;;;;;;;;;;;;5.61;83.32;100125.20;106866;1275;24658;-44
2024/04/16 00:12:54;;;;;;;;;;;;;;;5.63;83.24;100127.73;107036;1275;22586;-44
2024/04/16 00:15:21;;;;;;;;;;;;;;;5.64;83.30;100126.94;107036;1275;22672;-45
2024/04/16 00:17:47;;;;;;;;;;;;;;;5.67;83.30;100127.70;107008;1275;22610;-47
2024/04/16 00:20:15;;;;;;;;;;;;;;;5.68;83.36;100125.00;107203;1275;22631;-46
2024/04/16 00:22:42;;;;;;;;;;;;;;;5.69;83.43;100118.48;107096;1275;22508;-45
2024/04/16 00:25:09;;;;;;;;;;;;;;;5.70;83.18;100120.34;107091;1275;22643;-43
2024/04/16 00:27:35;;;;;;;;;;;;;;;5.71;83.24;100121.38;106864;1275;22428;-44
2024/04/16 00:30:02;;;;;;;;;;;;;;;5.71;83.20;100117.52;106864;1275;24180;-46
2024/04/16 00:32:29;;;;;;;;;;;;;;;5.72;83.57;100114.27;106942;1260;22492;-44
2024/04/16 00:34:56;;;;;;;;;;;;;;;5.72;83.57;100110.09;106885;1275;22503;-44
2024/04/16 00:37:22;;;;;;;;;;;;;;;5.71;83.17;100106.09;106859;1275;22498;-46
2024/04/16 00:39:49;;;;;;;;;;;;;;;5.70;83.24;100103.70;106837;1275;22613;-46
2024/04/16 00:42:15;;;;;;;;;;;;;;;5.70;83.10;100097.73;106892;1275;22660;-44
2024/04/16 00:44:42;;;;;;;;;;;;;;;5.71;83.04;100089.48;106954;1275;23797;-45
2024/04/16 00:47:08;;;;;;;;;;;;;;;5.71;82.84;100085.95;107038;1275;22634;-45
2024/04/16 00:49:35;;;;;;;;;;;;;;;5.72;82.56;100085.23;106885;1275;22470;-44
2024/04/16 00:52:02;;;;;;;;;;;;;;;5.72;82.84;100077.48;107129;1275;25185;-45
2024/04/16 00:54:29;;;;;;;;;;;;;;;5.73;82.98;100075.84;107113;1275;22518;-46
2024/04/16 00:56:56;;;;;;;;;;;;;;;5.76;82.65;100066.80;107027;1275;23696;-47
2024/04/16 00:59:26;;;;;;;;;;;;;;;5.78;82.53;100065.27;107004;1275;25387;-44
2024/04/16 01:01:55;;;;;;;;;;;;;;;5.81;82.46;100060.74;107031;1275;22627;-45
2024/04/16 01:04:22;;;;;;;;;;;;;;;5.86;82.73;100054.39;106986;1275;22465;-44
2024/04/16 01:06:52;;;;;;;;;;;;;;;5.91;82.73;100048.84;107161;1275;22892;-45
2024/04/16 01:09:18;;;;;;;;;;;;;;;5.97;82.92;100049.85;106966;1275;22730;-44
2024/04/16 01:11:48;;;;;;;;;;;;;;;6.02;82.92;100062.40;106883;1275;22520;-44
2024/04/16 01:14:15;;;;;;;;;;;;;;;6.05;83.23;100047.46;106994;1275;24262;-44
2024/04/16 01:16:41;;;;;;;;;;;;;;;6.06;83.24;100048.30;107051;1275;22791;-44
2024/04/16 01:19:08;;;;;;;;;;;;;;;6.07;83.31;100043.02;107001;1275;22454;-44
2024/04/16 01:21:35;;;;;;;;;;;;;;;6.06;83.03;100037.25;107158;1275;24266;-44
2024/04/16 01:24:01;;;;;;;;;;;;;;;6.06;83.06;100037.77;107039;1275;25214;-45
2024/04/16 01:26:28;;;;;;;;;;;;;;;6.06;83.17;100042.73;107005;1275;24903;-46
2024/04/16 01:28:54;;;;;;;;;;;;;;;6.05;82.89;100032.59;106873;1275;22495;-46
2024/04/16 01:31:21;;;;;;;;;;;;;;;6.02;82.72;100017.48;106850;1275;22634;-45
2024/04/16 01:33:49;;;;;;;;;;;;;;;6.00;82.67;100010.88;107107;1256;24269;-45
2024/04/16 01:36:16;;;;;;;;;;;;;;;5.99;82.84;100007.27;107138;1275;25388;-44
2024/04/16 01:38:43;;;;;;;;;;;;;;;6.00;82.92;100014.06;106972;1275;24051;-45
2024/04/16 01:41:11;;;;;;;;;;;;;;;6.02;83.39;100016.63;106835;1275;22464;-45
2024/04/16 01:43:38;;;;;;;;;;;;;;;6.04;83.34;100017.02;106866;1275;22466;-44
2024/04/16 01:46:04;;;;;;;;;;;;;;;6.07;83.40;100015.84;107017;1275;22557;-44
2024/04/16 01:48:31;;;;;;;;;;;;;;;6.09;83.38;100017.63;107159;1275;25335;-46
2024/04/16 01:50:58;;;;;;;;;;;;;;;6.11;83.31;100014.58;107189;1275;25919;-47
2024/04/16 01:53:24;;;;;;;;;;;;;;;6.12;82.97;100013.64;107005;1275;22628;-48
2024/04/16 01:55:51;;;;;;;;;;;;;;;6.13;82.97;100018.86;107079;1275;22658;-47
2024/04/16 01:58:17;;;;;;;;;;;;;;;6.13;82.77;100013.40;106811;1275;22495;-45
2024/04/16 02:00:44;;;;;;;;;;;;;;;6.13;82.87;100013.76;106935;1275;25022;-45
2024/04/16 02:03:11;;;;;;;;;;;;;;;6.11;82.99;100008.57;106848;1275;24186;-45
2024/04/16 02:05:38;;;;;;;;;;;;;;;6.11;83.28;100006.84;106568;1275;377884;-44
2024/04/16 02:08:04;;;;;;;;;;;;;;;6.11;83.52;100000.20;106940;1275;22567;-45
2024/04/16 02:10:31;;;;;;;;;;;;;;;6.09;84.02;99998.52;106972;1275;22439;-44
2024/04/16 02:12:57;;;;;;;;;;;;;;;6.07;83.91;99995.32;106937;1275;24219;-44
2024/04/16 02:15:24;;;;;;;;;;;;;;;6.05;83.95;99985.07;106860;1275;22657;-44
2024/04/16 02:17:50;;;;;;;;;;;;;;;6.05;83.77;99983.48;106814;1275;25340;-46
2024/04/16 02:20:17;;;;;;;;;;;;;;;6.05;83.53;99980.16;107031;1275;24316;-45
2024/04/16 02:22:44;;;;;;;;;;;;;;;6.04;83.63;99979.83;106997;1275;23877;-48
2024/04/16 02:25:11;;;;;;;;;;;;;;;6.04;83.65;99981.27;107018;1275;25827;-44
2024/04/16 02:27:37;;;;;;;;;;;;;;;6.06;83.85;99978.50;107014;1275;22732;-44
2024/04/16 02:30:05;;;;;;;;;;;;;;;6.08;83.85;99981.23;107037;1275;22498;-46
2024/04/16 02:32:31;;;;;;;;;;;;;;;6.09;84.16;99977.13;107010;1275;22512;-46
2024/04/16 02:34:58;;;;;;;;;;;;;;;6.10;83.92;99981.82;106862;1275;25207;-45
2024/04/16 02:37:25;;;;;;;;;;;;;;;6.08;84.10;99997.14;106889;1275;22442;-48
2024/04/16 02:39:51;;;;;;;;;;;;;;;6.06;84.52;99994.65;106858;1275;25166;-48
2024/04/16 02:42:18;;;;;;;;;;;;;;;6.01;85.22;100004.72;106837;1275;24161;-46
2024/04/16 02:44:44;;;;;;;;;;;;;;;5.96;85.45;100016.01;106875;1275;22555;-46
2024/04/16 02:47:11;;;;;;;;;;;;;;;5.91;85.36;100016.23;106877;1275;22491;-47
2024/04/16 02:49:37;;;;;;;;;;;;;;;5.86;85.35;100014.23;106824;1275;25275;-45
2024/04/16 02:52:04;;;;;;;;;;;;;;;5.81;85.59;100021.84;106854;1275;24209;-46
2024/04/16 02:54:31;;;;;;;;;;;;;;;5.75;85.61;100016.71;106926;1275;25617;-45
2024/04/16 02:57:00;;;;;;;;;;;;;;;5.70;85.58;100016.56;106833;1275;22718;-47
2024/04/16 02:59:27;;;;;;;;;;;;;;;5.67;85.91;100004.80;106864;1275;22447;-45
2024/04/16 03:01:54;;;;;;;;;;;;;;;5.67;85.74;99997.83;106964;1273;24289;-45
2024/04/16 03:04:20;;;;;;;;;;;;;;;5.65;85.24;99996.85;106945;1275;22665;-46
2024/04/16 03:06:47;;;;;;;;;;;;;;;5.63;85.38;99986.23;106930;1275;25494;-48
2024/04/16 03:09:13;;;;;;;;;;;;;;;5.64;85.74;99977.10;107001;1275;24125;-45
2024/04/16 03:11:40;;;;;;;;;;;;;;;5.61;85.41;99967.06;106829;1275;22828;-45
2024/04/16 03:14:06;;;;;;;;;;;;;;;5.58;85.47;99967.58;106858;1273;22489;-45
2024/04/16 03:16:35;;;;;;;;;;;;;;;5.55;85.54;99972.98;106848;1275;24200;-46
2024/04/16 03:19:02;;;;;;;;;;;;;;;5.52;85.59;99969.27;106864;1275;24285;-46
2024/04/16 03:21:29;;;;;;;;;;;;;;;5.50;85.48;99972.38;106890;1275;25388;-47
2024/04/16 03:23:55;;;;;;;;;;;;;;;5.47;85.83;99968.14;107047;1275;25214;-46
2024/04/16 03:26:22;;;;;;;;;;;;;;;5.45;85.60;99970.67;106971;1275;22450;-46
2024/04/16 03:28:48;;;;;;;;;;;;;;;5.42;85.74;99966.95;106849;1275;24282;-51
2024/04/16 03:31:15;;;;;;;;;;;;;;;5.38;85.79;99958.20;106952;1275;23830;-50
2024/04/16 03:33:41;;;;;;;;;;;;;;;5.36;85.81;99954.27;106955;1275;22911;-45
2024/04/16 03:36:08;;;;;;;;;;;;;;;5.38;86.15;99954.21;106834;1275;22479;-51
2024/04/16 03:38:35;;;;;;;;;;;;;;;5.38;86.08;99951.58;106937;1275;24188;-51
2024/04/16 03:41:01;;;;;;;;;;;;;;;5.37;86.21;99950.92;107107;1275;22638;-48
2024/04/16 03:43:28;;;;;;;;;;;;;;;5.37;86.19;99948.65;106865;1275;22960;-45
2024/04/16 03:45:55;;;;;;;;;;;;;;;5.33;86.26;99947.78;106880;1275;23892;-46
2024/04/16 03:48:22;;;;;;;;;;;;;;;5.29;86.45;99943.94;106897;1275;23921;-47
2024/04/16 03:50:49;;;;;;;;;;;;;;;5.28;86.79;99942.77;106983;1275;25333;-45
2024/04/16 03:53:18;;;;;;;;;;;;;;;5.26;86.95;99937.79;106901;1275;22423;-46
2024/04/16 03:55:44;;;;;;;;;;;;;;;5.24;87.64;99929.83;106938;1275;25285;-49
2024/04/16 03:58:11;;;;;;;;;;;;;;;5.20;87.65;99924.96;106860;1275;22668;-48
2024/04/16 04:03:23;;;;;;;;;;;;;;;5.20;88.18;99903.95;106841;1275;25197;-49
2024/04/16 04:05:50;;;;;;;;;;;;;;;5.21;88.52;99903.70;106887;1269;22479;-45
2024/04/16 04:08:17;;;;;;;;;;;;;;;5.25;88.66;99898.61;106869;1275;25261;-46
2024/04/16 04:10:43;;;;;;;;;;;;;;;5.27;88.74;99889.00;106882;1275;22518;-47
2024/04/16 04:13:10;;;;;;;;;;;;;;;5.30;88.77;99888.17;106876;1275;22444;-45
2024/04/16 04:15:37;;;;;;;;;;;;;;;5.34;89.09;99885.36;106962;1275;22525;-46
2024/04/16 04:18:04;;;;;;;;;;;;;;;5.37;89.16;99880.99;106886;1275;22634;-45
2024/04/16 04:20:31;;;;;;;;;;;;;;;5.40;89.09;99873.68;107160;1275;25252;-47
2024/04/16 04:22:58;;;;;;;;;;;;;;;5.41;88.93;99879.07;107222;1275;22450;-45
2024/04/16 04:25:25;;;;;;;;;;;;;;;5.42;88.99;99879.01;107081;1275;25265;-45
2024/04/16 04:27:51;;;;;;;;;;;;;;;5.42;89.13;99875.50;106848;1275;25386;-46
2024/04/16 04:30:18;;;;;;;;;;;;;;;5.41;89.04;99872.23;106892;1275;22439;-44
2024/04/16 04:32:51;;;;;;;;;;;;;;;5.42;89.12;99868.13;106960;1275;22595;-45
2024/04/16 04:35:18;;;;;;;;;;;;;;;5.43;89.23;99859.87;107177;1275;24043;-45
2024/04/16 04:37:46;;;;;;;;;;;;;;;5.44;89.19;99858.73;106868;1275;25385;-45
2024/04/16 04:40:13;;;;;;;;;;;;;;;5.46;89.43;99853.59;106874;1275;22558;-47
2024/04/16 04:42:40;;;;;;;;;;;;;;;5.47;89.47;99851.07;106936;1275;23832;-46
2024/04/16 04:45:06;;;;;;;;;;;;;;;5.46;89.48;99839.58;107037;1275;24180;-44
2024/04/16 04:47:33;;;;;;;;;;;;;;;5.43;89.80;99833.39;107022;1275;22452;-46
2024/04/16 04:49:59;;;;;;;;;;;;;;;5.42;89.83;99838.16;107233;1275;22572;-45
2024/04/16 04:52:26;;;;;;;;;;;;;;;5.42;90.00;99834.84;106977;1275;25322;-44
2024/04/16 04:54:53;;;;;;;;;;;;;;;5.41;89.99;99829.31;106943;1275;23864;-45
2024/04/16 04:57:20;;;;;;;;;;;;;;;5.39;90.14;99822.56;106998;1275;24263;-48
2024/04/16 04:59:49;;;;;;;;;;;;;;;5.38;90.54;99820.53;106925;1275;24173;-46
2024/04/16 05:02:18;;;;;;;;;;;;;;;5.37;90.79;99809.70;106984;1273;22512;-44
2024/04/16 05:04:45;;;;;;;;;;;;;;;5.35;91.16;99805.95;106833;1275;22455;-45
2024/04/16 05:07:12;;;;;;;;;;;;;;;5.32;91.40;99801.20;106864;1275;24635;-45
2024/04/16 05:09:38;;;;;;;;;;;;;;;5.30;91.68;99793.44;106942;1275;22522;-45
2024/04/16 05:12:05;;;;;;;;;;;;;;;5.29;91.96;99788.73;107059;1275;22512;-45
2024/04/16 05:14:31;;;;;;;;;;;;;;;5.30;92.22;99784.11;106904;1275;25217;-47
2024/04/16 05:16:58;;;;;;;;;;;;;;;5.32;92.26;99784.40;106877;1275;25214;-47
2024/04/16 05:19:24;;;;;;;;;;;;;;;5.34;92.57;99784.80;106960;1275;24182;-47
2024/04/16 05:21:51;;;;;;;;;;;;;;;5.38;92.89;99782.85;107230;1275;24167;-48
2024/04/16 05:24:18;;;;;;;;;;;;;;;5.42;92.93;99779.15;106980;1275;22660;-49
2024/04/16 05:26:44;;;;;;;;;;;;;;;5.45;92.83;99778.63;106976;1275;25391;-51
2024/04/16 05:29:11;;;;;;;;;;;;;;;5.49;93.14;99781.73;106939;1275;23895;-51
2024/04/16 05:31:40;;;;;;;;;;;;;;;5.53;93.22;99775.75;107063;1275;25359;-50
2024/04/16 05:34:08;;;;;;;;;;;;;;;5.56;92.80;99788.58;106894;1275;22492;-47
2024/04/16 05:36:34;;;;;;;;;;;;;;;5.56;92.62;99782.95;106857;1275;24310;-47
2024/04/16 05:39:04;;;;;;;;;;;;;;;5.57;92.26;99780.83;106885;1273;22518;-47
2024/04/16 05:41:30;;;;;;;;;;;;;;;5.53;91.69;99774.37;106848;1275;22621;-47
2024/04/16 05:43:57;;;;;;;;;;;;;;;5.52;91.76;99767.41;106972;1275;23865;-46
2024/04/16 05:46:23;;;;;;;;;;;;;;;5.51;91.89;99762.54;107007;1275;24053;-47
2024/04/16 05:48:50;;;;;;;;;;;;;;;5.50;91.90;99757.52;106864;1275;22445;-47
2024/04/16 05:51:16;;;;;;;;;;;;;;;5.48;92.09;99755.34;106883;1275;25382;-48
2024/04/16 05:53:45;;;;;;;;;;;;;;;5.47;92.27;99750.83;106855;1275;24193;-46
2024/04/16 05:56:12;;;;;;;;;;;;;;;5.44;92.42;99744.84;106851;1275;23340;-47
2024/04/16 05:58:38;;;;;;;;;;;;;;;5.43;92.43;99742.49;106849;1275;22524;-48
2024/04/16 06:01:07;;;;;;;;;;;;;;;5.40;92.80;99740.69;106862;1275;22432;-47
2024/04/16 06:03:34;;;;;;;;;;;;;;;5.40;92.60;99737.20;106923;1275;24936;-46
2024/04/16 06:06:01;;;;;;;;;;;;;;;5.40;92.91;99725.46;107038;1275;25258;-51
2024/04/16 06:08:29;;;;;;;;;;;;;;;5.40;93.08;99730.75;107097;1275;24193;-49
2024/04/16 06:10:58;;;;;;;;;;;;;;;5.39;93.56;99730.40;106892;1275;24141;-47
2024/04/16 06:13:27;;;;;;;;;;;;;;;5.41;93.86;99730.48;106864;1275;22511;-47
2024/04/16 06:15:53;;;;;;;;;;;;;;;5.43;94.53;99734.23;106899;1275;22445;-47
2024/04/16 06:18:20;;;;;;;;;;;;;;;5.47;94.68;99730.52;106887;1275;24040;-48
2024/04/16 06:20:47;;;;;;;;;;;;;;;5.52;94.87;99728.84;106886;1275;26067;-52
2024/04/16 06:23:13;;;;;;;;;;;;;;;5.58;95.34;99725.05;107049;1256;22673;-52
2024/04/16 06:25:40;;;;;;;;;;;;;;;5.64;95.59;99722.59;106975;1275;22938;-47
2024/04/16 06:28:06;;;;;;;;;;;;;;;5.72;95.72;99722.71;106865;1275;22459;-48
2024/04/16 06:30:33;;;;;;;;;;;;;;;5.78;95.89;99723.59;106949;1275;23443;-50
2024/04/16 06:33:00;;;;;;;;;;;;;;;5.85;96.16;99724.42;106957;1275;22511;-49
2024/04/16 06:35:27;;;;;;;;;;;;;;;5.92;96.59;99719.12;106936;1275;22478;-47
2024/04/16 06:37:53;;;;;;;;;;;;;;;5.99;96.68;99716.17;106896;1275;22454;-48
2024/04/16 06:40:20;;;;;;;;;;;;;;;6.06;96.78;99709.84;106911;1275;23903;-48
2024/04/16 06:42:49;;;;;;;;;;;;;;;6.13;97.42;99707.48;106973;1275;24161;-47
2024/04/16 06:45:15;;;;;;;;;;;;;;;6.21;97.59;99711.63;106987;1275;22522;-48
2024/04/16 06:47:42;;;;;;;;;;;;;;;6.30;97.98;99711.83;107010;1275;22634;-49
2024/04/16 06:50:09;;;;;;;;;;;;;;;6.38;98.21;99712.39;106898;1275;24291;-49
2024/04/16 06:52:35;;;;;;;;;;;;;;;6.46;97.78;99710.37;106865;1275;22430;-48
2024/04/16 06:55:03;;;;;;;;;;;;;;;6.54;98.00;99714.08;106903;1275;24909;-47
2024/04/16 06:57:30;;;;;;;;;;;;;;;6.63;98.26;99720.81;106772;1275;22674;-48
2024/04/16 06:59:57;;;;;;;;;;;;;;;6.70;98.08;99711.45;106906;1275;22600;-48
2024/04/16 07:02:24;;;;;;;;;;;;;;;6.77;97.97;99712.79;106938;1275;22465;-49
2024/04/16 07:04:51;;;;;;;;;;;;;;;6.85;98.11;99710.89;106968;1275;22500;-51
2024/04/16 07:07:18;;;;;;;;;;;;;;;6.91;97.73;99709.70;106949;1275;24173;-47
2024/04/16 07:09:48;;;;;;;;;;;;;;;7.00;97.78;99709.14;106849;1275;22918;-47
2024/04/16 07:12:15;;;;;;;;;;;;;;;7.12;98.43;99712.84;106873;1275;25392;-46
2024/04/16 07:14:41;;;;;;;;;;;;;;;7.22;98.44;99715.23;106850;1275;22619;-47
2024/04/16 07:17:08;;;;;;;;;;;;;;;7.30;98.17;99718.24;106892;1275;25922;-47
2024/04/16 07:19:34;;;;;;;;;;;;;;;7.36;97.60;99719.27;106988;1275;22651;-48
2024/04/16 07:22:01;;;;;;;;;;;;;;;7.44;97.16;99724.27;107084;1275;25345;-46
2024/04/16 07:24:28;;;;;;;;;;;;;;;7.49;96.99;99727.64;106880;1275;24141;-47
2024/04/16 07:26:55;;;;;;;;;;;;;;;7.55;96.91;99733.75;106882;1275;25346;-48
2024/04/16 07:29:22;;;;;;;;;;;;;;;7.62;96.92;99732.97;106936;1273;24188;-48
2024/04/16 07:31:49;;;;;;;;;;;;;;;7.68;96.70;99734.17;106856;1275;24362;-47
2024/04/16 07:34:16;;;;;;;;;;;;;;;7.78;96.87;99736.55;106888;1275;24269;-48
2024/04/16 07:36:43;;;;;;;;;;;;;;;7.86;96.88;99744.68;106845;1275;22507;-48
2024/04/16 07:39:10;;;;;;;;;;;;;;;7.90;96.22;99750.95;106872;1272;23873;-48
2024/04/16 07:41:37;;;;;;;;;;;;;;;7.91;95.67;99755.24;106890;1275;22800;-46
2024/04/16 07:44:03;;;;;;;;;;;;;;;7.91;95.14;99754.91;106923;1275;22550;-48
2024/04/16 07:46:33;;;;;;;;;;;;;;;7.90;95.07;99771.71;106897;1275;25401;-48
2024/04/16 07:49:00;;;;;;;;;;;;;;;7.87;95.02;99773.27;106947;1275;24173;-48
2024/04/16 07:51:27;;;;;;;;;;;;;;;7.84;94.94;99773.11;106868;1275;23918;-49
2024/04/16 07:53:53;;;;;;;;;;;;;;;7.86;94.95;99768.64;106882;1275;25847;-50
2024/04/16 07:56:20;;;;;;;;;;;;;;;7.88;95.15;99770.81;106888;1275;24391;-51
2024/04/16 07:58:47;;;;;;;;;;;;;;;7.89;94.61;99767.34;106921;1275;22437;-49
2024/04/16 08:01:14;;;;;;;;;;;;;;;7.92;94.27;99780.38;106935;1275;22496;-49
2024/04/16 08:03:41;;;;;;;;;;;;;;;7.96;94.32;99789.98;107068;1275;22650;-48
2024/04/16 08:06:10;;;;;;;;;;;;;;;8.01;94.21;99790.86;107241;1275;24136;-53
2024/04/16 08:08:37;;;;;;;;;;;;;;;8.08;93.77;99794.66;106938;1275;22545;-45
2024/04/16 08:11:13;;;;;;;;;;;;;;;8.18;93.98;99806.89;107006;1275;25392;-45
2024/04/16 08:13:40;;;;;;;;;;;;;;;8.29;94.08;99810.45;107089;1275;22506;-49
2024/04/16 08:16:08;;;;;;;;;;;;;;;8.36;93.85;99808.58;106936;1275;22522;-48
2024/04/16 08:18:35;;;;;;;;;;;;;;;8.41;93.57;99813.38;106876;1275;22527;-48
2024/04/16 08:21:04;;;;;;;;;;;;;;;8.44;92.51;99813.02;106909;1275;22647;-49
2024/04/16 08:23:30;;;;;;;;;;;;;;;8.50;92.91;99810.20;106914;1275;22498;-48
2024/04/16 08:26:01;;;;;;;;;;;;;;;8.55;92.61;99819.20;106863;1275;22758;-49
2024/04/16 08:28:31;;;;;;;;;;;;;;;8.59;92.19;99821.39;106837;1275;24007;-50
2024/04/16 08:30:58;;;;;;;;;;;;;;;8.67;92.39;99828.10;107077;1275;22771;-47
2024/04/16 08:33:25;;;;;;;;;;;;;;;8.76;92.26;99834.56;107098;1275;22796;-50
2024/04/16 08:35:52;;;;;;;;;;;;;;;8.82;91.07;99840.65;106969;1275;22454;-50
2024/04/16 08:38:19;;;;;;;;;;;;;;;8.87;90.63;99837.89;106972;1275;25228;-49
2024/04/16 08:40:46;;;;;;;;;;;;;;;8.93;90.51;99840.52;106903;1275;22981;-47
2024/04/16 08:43:13;;;;;;;;;;;;;;;8.99;90.01;99838.52;106889;1275;25236;-47
2024/04/16 08:45:43;;;;;;;;;;;;;;;9.04;89.78;99850.86;106876;1275;25381;-49
2024/04/16 08:48:10;;;;;;;;;;;;;;;9.10;89.40;99859.89;106880;1275;22791;-49
2024/04/16 08:50:36;;;;;;;;;;;;;;;9.13;88.93;99865.96;106882;1275;22569;-48
2024/04/16 08:53:06;;;;;;;;;;;;;;;9.16;88.53;99873.38;106900;1275;22489;-47
2024/04/16 08:55:34;;;;;;;;;;;;;;;9.19;88.06;99877.24;106865;1275;25188;-50
2024/04/16 08:58:01;;;;;;;;;;;;;;;9.22;87.76;99885.66;106965;1272;22453;-49
2024/04/16 09:00:28;;;;;;;;;;;;;;;9.27;87.73;99892.59;106878;1275;22948;-48
2024/04/16 09:02:54;;;;;;;;;;;;;;;9.31;87.86;99899.52;106858;1275;22461;-48
2024/04/16 09:05:21;;;;;;;;;;;;;;;9.35;87.73;99912.81;106843;1275;22661;-45
2024/04/16 09:07:50;;;;;;;;;;;;;;;9.40;87.54;99925.00;106875;1275;22579;-46
2024/04/16 09:10:23;;;;;;;;;;;;;;;9.46;87.53;99930.10;106970;1275;24168;-46
2024/04/16 09:12:50;;;;;;;;;;;;;;;9.57;87.93;99942.94;106859;1275;24445;-47
2024/04/16 09:15:17;;;;;;;;;;;;;;;9.67;86.71;99949.16;106870;1275;22578;-46
2024/04/16 09:17:49;;;;;;;;;;;;;;;9.71;85.69;99958.08;106884;1275;22965;-47
2024/04/16 09:20:19;;;;;;;;;;;;;;;9.70;85.19;99963.22;106892;1275;22463;-45
2024/04/16 09:22:49;;;;;;;;;;;;;;;9.70;85.64;99970.13;106877;1275;22512;-47
2024/04/16 09:25:20;;;;;;;;;;;;;;;9.70;86.06;99983.36;106954;1275;25258;-46
2024/04/16 09:27:47;;;;;;;;;;;;;;;9.75;86.24;99990.11;107078;1275;22448;-48
2024/04/16 09:30:14;;;;;;;;;;;;;;;9.85;86.16;99997.55;107035;1275;24202;-49
2024/04/16 09:32:42;;;;;;;;;;;;;;;9.94;85.65;100002.08;106959;1275;24370;-46
2024/04/16 09:35:09;;;;;;;;;;;;;;;9.99;84.48;100002.63;106883;1275;23842;-50
2024/04/16 09:37:35;;;;;;;;;;;;;;;10.04;84.16;100010.21;106817;1275;25396;-46
2024/04/16 09:40:06;;;;;;;;;;;;;;;10.12;84.57;100021.13;106920;1275;24254;-46
2024/04/16 09:42:33;;;;;;;;;;;;;;;10.19;85.11;100039.02;107021;1275;22512;-47
2024/04/16 09:45:00;;;;;;;;;;;;;;;10.22;84.85;100028.90;106969;1275;24040;-47
2024/04/16 09:47:26;;;;;;;;;;;;;;;10.23;84.65;100040.15;107030;1275;23339;-50
2024/04/16 09:49:56;;;;;;;;;;;;;;;10.27;85.02;100043.07;106849;1275;24134;-46
2024/04/16 09:52:28;;;;;;;;;;;;;;;10.33;85.44;100048.52;106855;1275;24365;-47
2024/04/16 09:54:56;;;;;;;;;;;;;;;10.40;85.16;100059.85;107021;1275;23755;-47
2024/04/16 09:57:23;;;;;;;;;;;;;;;10.46;85.61;100066.69;106953;1274;22530;-48
2024/04/16 09:59:51;;;;;;;;;;;;;;;10.46;83.80;100073.22;106972;1275;24040;-46
2024/04/16 10:02:17;;;;;;;;;;;;;;;10.42;83.88;100085.33;106818;1275;22548;-46
2024/04/16 10:04:47;;;;;;;;;;;;;;;10.37;83.86;100082.16;106880;1275;24138;-47
2024/04/16 10:07:14;;;;;;;;;;;;;;;10.34;83.39;100086.09;106899;1275;22456;-48
2024/04/16 10:09:41;;;;;;;;;;;;;;;10.30;82.92;100085.11;106809;1275;25265;-47
2024/04/16 10:12:08;;;;;;;;;;;;;;;10.28;83.08;100092.44;106887;1275;22536;-50
2024/04/16 10:14:35;;;;;;;;;;;;;;;10.29;82.57;100099.13;106992;1275;22543;-49
2024/04/16 10:17:02;;;;;;;;;;;;;;;10.32;83.10;100103.56;106865;1275;22457;-50
2024/04/16 10:19:29;;;;;;;;;;;;;;;10.37;83.53;100109.39;106953;1275;22589;-48
2024/04/16 10:22:00;;;;;;;;;;;;;;;10.41;83.13;100114.22;107656;1275;22498;-46
2024/04/16 10:24:29;;;;;;;;;;;;;;;10.44;82.29;100119.14;107116;1275;22509;-47
2024/04/16 10:26:56;;;;;;;;;;;;;;;10.51;82.78;100116.54;107002;1275;22480;-45
2024/04/16 10:29:23;;;;;;;;;;;;;;;10.61;82.46;100114.46;106926;1275;24198;-47
2024/04/16 10:31:50;;;;;;;;;;;;;;;10.73;82.02;100121.23;107120;1275;25262;-47
2024/04/16 10:34:29;;;;;;;;;;;;;;;10.82;80.78;100125.22;106879;1275;24249;-46
2024/04/16 10:36:56;;;;;;;;;;;;;;;10.89;81.48;100133.76;106866;1275;25408;-47
2024/04/16 10:39:31;;;;;;;;;;;;;;;10.98;81.40;100135.77;106889;1275;22488;-50
2024/04/16 10:41:59;;;;;;;;;;;;;;;11.14;80.91;100134.52;106896;1275;25228;-48
2024/04/16 10:44:26;;;;;;;;;;;;;;;11.32;81.41;100137.83;106891;1275;22513;-46
2024/04/16 10:46:56;;;;;;;;;;;;;;;11.50;80.77;100143.96;106873;1275;22429;-47
2024/04/16 10:49:25;;;;;;;;;;;;;;;11.66;80.34;100148.99;106871;1275;22650;-47
2024/04/16 10:51:52;;;;;;;;;;;;;;;11.85;79.11;100153.86;107056;1275;22446;-46
2024/04/16 10:54:19;;;;;;;;;;;;;;;12.02;78.31;100155.66;106921;1275;23202;-47
2024/04/16 10:56:47;;;;;;;;;;;;;;;12.17;76.88;100160.77;106861;1275;22443;-47
2024/04/16 10:59:14;;;;;;;;;;;;;;;12.24;75.14;100164.48;106871;1275;25322;-46
2024/04/16 11:01:44;;;;;;;;;;;;;;;12.26;74.58;100167.20;106931;1275;22583;-49
2024/04/16 11:04:11;;;;;;;;;;;;;;;12.36;74.81;100175.10;106922;1273;22488;-49
2024/04/16 11:06:38;;;;;;;;;;;;;;;12.46;74.02;100184.47;106924;1275;22544;-50
2024/04/16 11:09:05;;;;;;;;;;;;;;;12.57;73.19;100185.08;107100;1274;25360;-48
2024/04/16 11:11:35;;;;;;;;;;;;;;;12.60;71.86;100190.36;106878;1275;25280;-49
2024/04/16 11:14:01;;;;;;;;;;;;;;;12.59;73.03;100195.19;106873;1275;22606;-49
2024/04/16 11:16:28;;;;;;;;;;;;;;;12.63;71.65;100199.20;106818;1275;23013;-50
2024/04/16 11:18:58;;;;;;;;;;;;;;;12.74;71.16;100204.89;106889;1275;24604;-48
2024/04/16 11:21:29;;;;;;;;;;;;;;;12.88;70.07;100206.32;107120;1275;25226;-48
2024/04/16 11:23:59;;;;;;;;;;;;;;;13.04;70.21;100205.83;107108;1275;23828;-50
2024/04/16 11:26:30;;;;;;;;;;;;;;;13.22;69.38;100202.45;107001;1275;22440;-49
2024/04/16 11:28:56;;;;;;;;;;;;;;;13.41;69.02;100204.90;107173;1275;25323;-49
2024/04/16 11:31:25;;;;;;;;;;;;;;;13.61;67.52;100197.52;107052;1275;23901;-51
2024/04/16 11:33:52;;;;;;;;;;;;;;;13.77;66.33;100207.92;107043;1275;25395;-49
2024/04/16 11:36:20;;;;;;;;;;;;;;;13.94;67.03;100210.08;106950;1275;22800;-52
2024/04/16 11:38:49;;;;;;;;;;;;;;;14.14;65.28;100211.02;106828;1275;22612;-48
2024/04/16 11:41:15;;;;;;;;;;;;;;;14.30;63.91;100214.63;106892;1275;22610;-50
2024/04/16 11:43:46;;;;;;;;;;;;;;;14.41;62.95;100220.38;106936;1275;24195;-50
2024/04/16 11:46:13;;;;;;;;;;;;;;;14.51;62.90;100223.64;106877;1275;24163;-48
2024/04/16 11:48:42;;;;;;;;;;;;;;;14.65;61.92;100229.23;106939;1271;25358;-47
2024/04/16 11:51:12;;;;;;;;;;;;;;;14.79;61.06;100237.34;106959;1275;25386;-47
2024/04/16 11:53:38;;;;;;;;;;;;;;;14.83;60.11;100233.23;106882;1275;22847;-48
2024/04/16 11:56:06;;;;;;;;;;;;;;;14.84;58.98;100243.69;106784;1275;25374;-48
2024/04/16 11:58:34;;;;;;;;;;;;;;;14.81;57.80;100235.70;107164;1275;25332;-49
2024/04/16 12:01:01;;;;;;;;;;;;;;;14.78;57.89;100239.73;107175;1275;23891;-52
2024/04/16 12:03:28;;;;;;;;;;;;;;;14.75;57.70;100251.38;106990;1275;24225;-49
2024/04/16 12:05:56;;;;;;;;;;;;;;;14.71;57.51;100252.18;106953;1275;22446;-49
2024/04/16 12:08:22;;;;;;;;;;;;;;;14.69;57.49;100258.57;106965;1275;22930;-49
2024/04/16 12:10:49;;;;;;;;;;;;;;;14.69;56.92;100262.19;107018;1275;22496;-48
2024/04/16 12:13:16;;;;;;;;;;;;;;;14.77;56.74;100260.95;107014;1275;25169;-47
2024/04/16 12:15:42;;;;;;;;;;;;;;;14.90;56.66;100267.51;106989;1275;22511;-47
2024/04/16 12:18:09;;;;;;;;;;;;;;;15.06;56.73;100264.42;106956;1275;24288;-49
2024/04/16 12:20:37;;;;;;;;;;;;;;;15.19;54.46;100265.78;106928;1275;22549;-48
2024/04/16 12:23:04;;;;;;;;;;;;;;;15.24;53.51;100262.55;106865;1275;22502;-47
2024/04/16 12:25:30;;;;;;;;;;;;;;;15.26;53.09;100267.52;106888;1275;22449;-48
2024/04/16 12:27:58;;;;;;;;;;;;;;;15.38;53.22;100265.64;106967;1275;22473;-49
2024/04/16 12:30:24;;;;;;;;;;;;;;;15.59;53.14;100262.77;106876;1275;24165;-47
2024/04/16 12:32:51;;;;;;;;;;;;;;;15.80;53.63;100264.56;106876;1275;25396;-47
2024/04/16 12:35:29;;;;;;;;;;;;;;;15.94;52.36;100272.32;106883;1275;22464;-48
2024/04/16 12:37:57;;;;;;;;;;;;;;;15.92;53.10;100297.85;106885;1275;22446;-50
2024/04/16 12:40:23;;;;;;;;;;;;;;;15.75;53.02;100299.13;107013;1275;22635;-48
2024/04/16 12:42:51;;;;;;;;;;;;;;;15.47;52.86;100303.45;107113;1275;22515;-48